createdAt,value
2023-02-11T00:00:43.205Z,946.00
2023-02-11T00:01:43.197Z,960.00
2023-02-11T00:02:44.173Z,959.00
2023-02-11T00:03:43.302Z,961.00
2023-02-11T00:04:43.158Z,980.00
2023-02-11T06:28:23.745Z,516.00
2023-02-11T06:29:23.665Z,518.00
2023-02-11T06:30:23.651Z,518.00
2023-02-11T06:31:23.779Z,522.00
2023-02-11T06:32:42.703Z,520.00
2023-02-11T06:33:23.631Z,520.00
2023-02-11T06:35:23.608Z,523.00
2023-02-11T06:36:23.597Z,524.00
2023-02-11T06:37:23.595Z,528.00
2023-02-11T06:38:23.582Z,528.00
2023-02-11T06:39:23.573Z,530.00
2023-02-11T06:40:23.560Z,532.00
2023-02-11T06:41:23.551Z,530.00
2023-02-11T06:43:23.554Z,528.00
2023-02-11T06:44:23.534Z,525.00
2023-02-11T06:45:23.515Z,530.00
2023-02-11T06:46:23.580Z,530.00
2023-02-11T06:48:23.508Z,528.00
2023-02-11T06:49:23.480Z,531.00
2023-02-11T06:50:23.471Z,531.00
2023-02-11T06:51:23.516Z,531.00
2023-02-11T06:52:23.459Z,529.00
2023-02-11T06:53:23.448Z,528.00
2023-02-11T06:54:23.437Z,533.00
2023-02-11T06:55:23.434Z,531.00
2023-02-11T06:56:23.419Z,531.00
2023-02-11T06:57:23.409Z,529.00
2023-02-11T06:58:23.419Z,529.00
2023-02-11T06:59:23.399Z,529.00
2023-02-11T07:00:23.386Z,530.00
2023-02-11T07:01:23.422Z,526.00
2023-02-11T07:02:23.366Z,525.00
2023-02-11T07:03:23.378Z,530.00
2023-02-11T07:04:23.353Z,527.00
2023-02-11T07:05:23.335Z,531.00
2023-02-11T07:06:23.335Z,524.00
2023-02-11T07:07:23.317Z,530.00
2023-02-11T07:08:23.310Z,530.00
2023-02-11T07:09:23.307Z,528.00
2023-02-11T07:10:23.292Z,529.00
2023-02-11T07:11:23.283Z,532.00
2023-02-11T07:12:23.270Z,523.00
2023-02-11T07:13:23.265Z,528.00
2023-02-11T07:14:23.262Z,529.00
2023-02-11T07:15:23.244Z,527.00
2023-02-11T07:16:23.344Z,524.00
2023-02-11T07:17:23.226Z,527.00
2023-02-11T07:18:23.217Z,532.00
2023-02-11T07:19:23.234Z,521.00
2023-02-11T07:20:23.211Z,530.00
2023-02-11T07:21:23.190Z,527.00
2023-02-11T07:22:23.181Z,528.00
2023-02-11T07:23:23.184Z,523.00
2023-02-11T07:24:23.168Z,529.00
2023-02-11T07:26:23.145Z,531.00
2023-02-11T07:27:23.140Z,526.00
2023-02-11T07:28:23.182Z,530.00
2023-02-11T07:29:23.119Z,533.00
2023-02-11T07:30:23.110Z,524.00
2023-02-11T07:31:23.359Z,527.00
2023-02-11T07:32:23.089Z,532.00
2023-02-11T07:33:23.092Z,531.00
2023-02-11T07:34:23.113Z,531.00
2023-02-11T07:35:23.088Z,532.00
2023-02-11T07:36:23.053Z,526.00
2023-02-11T07:37:23.047Z,524.00
2023-02-11T07:38:23.035Z,522.00
2023-02-11T07:39:23.058Z,526.00
2023-02-11T07:40:23.019Z,518.00
2023-02-11T07:41:23.007Z,523.00
2023-02-11T07:42:22.999Z,529.00
2023-02-11T07:43:22.991Z,529.00
2023-02-11T07:44:22.987Z,531.00
2023-02-11T07:45:22.972Z,527.00
2023-02-11T07:46:23.055Z,523.00
2023-02-11T07:47:22.960Z,523.00
2023-02-11T07:48:22.948Z,529.00
2023-02-11T07:49:22.936Z,529.00
2023-02-11T07:50:22.929Z,526.00
2023-02-11T07:51:22.943Z,529.00
2023-02-11T07:52:22.909Z,527.00
2023-02-11T07:53:22.907Z,526.00
2023-02-11T07:54:22.894Z,520.00
2023-02-11T07:55:22.881Z,525.00
2023-02-11T07:56:22.896Z,528.00
2023-02-11T07:57:22.863Z,525.00
2023-02-11T07:58:22.863Z,521.00
2023-02-11T07:59:22.852Z,529.00
2023-02-11T08:00:22.835Z,528.00
2023-02-11T08:01:22.924Z,522.00
2023-02-11T08:02:22.914Z,527.00
2023-02-11T08:03:22.813Z,519.00
2023-02-11T08:04:22.799Z,520.00
2023-02-11T08:05:22.791Z,522.00
2023-02-11T08:06:22.788Z,514.00
2023-02-11T08:07:22.795Z,521.00
2023-02-11T08:08:22.764Z,522.00
2023-02-11T08:09:22.756Z,521.00
2023-02-11T08:10:22.749Z,517.00
2023-02-11T08:11:22.732Z,523.00
2023-02-11T08:12:22.730Z,521.00
2023-02-11T08:13:22.715Z,524.00
2023-02-11T08:14:22.726Z,521.00
2023-02-11T08:15:22.702Z,520.00
2023-02-11T08:16:22.757Z,525.00
2023-02-11T08:17:22.688Z,528.00
2023-02-11T08:18:22.710Z,519.00
2023-02-11T08:19:22.660Z,523.00
2023-02-11T08:20:22.653Z,517.00
2023-02-11T08:21:22.668Z,522.00
2023-02-11T08:22:22.634Z,517.00
2023-02-11T08:23:22.649Z,518.00
2023-02-11T08:24:22.614Z,524.00
2023-02-11T08:25:22.605Z,525.00
2023-02-11T08:26:22.596Z,516.00
2023-02-11T08:27:23.144Z,517.00
2023-02-11T08:28:22.647Z,518.00
2023-02-11T08:29:22.578Z,514.00
2023-02-11T08:30:22.560Z,518.00
2023-02-11T08:31:22.708Z,515.00
2023-02-11T08:32:22.630Z,519.00
2023-02-11T08:33:22.533Z,520.00
2023-02-11T08:34:22.524Z,515.00
2023-02-11T08:35:22.514Z,518.00
2023-02-11T08:36:22.523Z,512.00
2023-02-11T08:37:22.505Z,513.00
2023-02-11T08:38:22.488Z,508.00
2023-02-11T08:39:22.573Z,515.00
2023-02-11T08:40:22.467Z,507.00
2023-02-11T08:41:22.465Z,511.00
2023-02-11T08:42:22.470Z,508.00
2023-02-11T08:43:22.444Z,511.00
2023-02-11T08:44:22.440Z,502.00
2023-02-11T08:45:22.426Z,500.00
2023-02-11T08:46:22.445Z,505.00
2023-02-11T08:47:22.409Z,507.00
2023-02-11T08:48:22.407Z,505.00
2023-02-11T08:49:22.439Z,504.00
2023-02-11T08:50:22.383Z,506.00
2023-02-11T08:51:22.373Z,508.00
2023-02-11T08:52:22.362Z,503.00
2023-02-11T08:53:22.370Z,507.00
2023-02-11T08:54:22.350Z,501.00
2023-02-11T08:55:22.366Z,500.00
2023-02-11T08:56:22.328Z,507.00
2023-02-11T08:57:22.319Z,499.00
2023-02-11T08:58:22.305Z,505.00
2023-02-11T08:59:22.295Z,505.00
2023-02-11T09:00:22.311Z,505.00
2023-02-11T09:01:23.081Z,506.00
2023-02-11T09:02:22.305Z,503.00
2023-02-11T09:03:22.301Z,507.00
2023-02-11T09:04:22.271Z,506.00
2023-02-11T09:05:22.250Z,504.00
2023-02-11T09:06:22.236Z,500.00
2023-02-11T09:07:22.226Z,507.00
2023-02-11T09:08:22.215Z,504.00
2023-02-11T09:11:22.216Z,504.00
2023-02-11T16:34:24.861Z,872.00
